Terminal Aerodrome Forecast
Issued by NWS

Home | Current Version | Previous Version | Text Only | Print | Product List | Glossary On
Versions: 1 2 3 4 5 6 7 8 9 10 11 12 13 14 15 16 17 18 19 20 21 22
000
FTUS45 KFGZ 200500
TAFPRC
TAF
KPRC 200538Z 2006/2106 VRB04KT P6SM SCT035 BKN050
     FM200900 VRB02KT P6SM SCT015
     FM201900 20008KT P6SM VCTS BKN060CB OVC100
      TEMPO 2020/2024 VRB20G30KT 3SM TSRA OVC040CB=

USA.gov is the U.S. government's official web portal to all federal, state and local government web resources and services.